sensor_id;sensor_type;location;lat;lon;timestamp;pressure;altitude;pressure_sealevel;temperature;humidity
37648;BME280;23490;53.656;10.076;2023-02-23T00:01:54;99451.06;;;-145.95;100.00
37648;BME280;23490;53.656;10.076;2023-02-23T00:04:21;99442.78;;;-145.95;100.00
37648;BME280;23490;53.656;10.076;2023-02-23T00:06:47;99438.66;;;-145.95;100.00
37648;BME280;23490;53.656;10.076;2023-02-23T00:09:13;99457.25;;;-145.95;100.00
37648;BME280;23490;53.656;10.076;2023-02-23T00:11:59;99405.63;;;-145.95;100.00
37648;BME280;23490;53.656;10.076;2023-02-23T00:14:32;99455.19;;;-145.95;100.00
37648;BME280;23490;53.656;10.076;2023-02-23T00:16:58;99459.31;;;-145.95;100.00
37648;BME280;23490;53.656;10.076;2023-02-23T00:19:24;99453.13;;;-145.95;100.00
37648;BME280;23490;53.656;10.076;2023-02-23T00:21:50;99451.06;;;-145.95;100.00
37648;BME280;23490;53.656;10.076;2023-02-23T00:24:16;99467.56;;;-145.95;100.00
37648;BME280;23490;53.656;10.076;2023-02-23T00:26:45;99461.38;;;-145.95;100.00
37648;BME280;23490;53.656;10.076;2023-02-23T00:29:15;99469.63;;;-145.95;100.00
37648;BME280;23490;53.656;10.076;2023-02-23T00:31:42;99492.34;;;-145.95;100.00
37648;BME280;23490;53.656;10.076;2023-02-23T00:34:09;99430.41;;;-145.95;100.00
37648;BME280;23490;53.656;10.076;2023-02-23T00:36:36;99517.13;;;-145.95;100.00
37648;BME280;23490;53.656;10.076;2023-02-23T00:39:05;99490.28;;;-145.95;100.00
37648;BME280;23490;53.656;10.076;2023-02-23T00:41:41;99508.88;;;-145.95;100.00
37648;BME280;23490;53.656;10.076;2023-02-23T00:44:07;99446.91;;;-145.95;100.00
37648;BME280;23490;53.656;10.076;2023-02-23T00:46:32;99471.69;;;-145.95;100.00
37648;BME280;23490;53.656;10.076;2023-02-23T00:48:58;99488.22;;;-145.95;100.00
37648;BME280;23490;53.656;10.076;2023-02-23T00:51:25;99455.19;;;-145.95;100.00
37648;BME280;23490;53.656;10.076;2023-02-23T00:53:58;99484.09;;;-145.95;100.00
37648;BME280;23490;53.656;10.076;2023-02-23T00:56:24;99517.13;;;-145.95;100.00
37648;BME280;23490;53.656;10.076;2023-02-23T00:58:50;99459.31;;;-145.95;100.00
37648;BME280;23490;53.656;10.076;2023-02-23T01:01:15;99486.16;;;-145.95;100.00
37648;BME280;23490;53.656;10.076;2023-02-23T01:03:42;99465.50;;;-145.95;100.00
37648;BME280;23490;53.656;10.076;2023-02-23T01:06:11;99469.63;;;-145.95;100.00
37648;BME280;23490;53.656;10.076;2023-02-23T01:08:39;99494.41;;;-145.95;100.00
37648;BME280;23490;53.656;10.076;2023-02-23T01:11:10;99513.00;;;-145.95;100.00
37648;BME280;23490;53.656;10.076;2023-02-23T01:13:37;99484.09;;;-145.95;100.00
37648;BME280;23490;53.656;10.076;2023-02-23T01:16:07;99455.19;;;-145.95;100.00
37648;BME280;23490;53.656;10.076;2023-02-23T01:18:33;99504.75;;;-145.95;100.00
37648;BME280;23490;53.656;10.076;2023-02-23T01:21:00;99529.53;;;-145.95;100.00
37648;BME280;23490;53.656;10.076;2023-02-23T01:23:25;99473.75;;;-145.95;100.00
37648;BME280;23490;53.656;10.076;2023-02-23T01:25:50;99475.84;;;-145.95;100.00
37648;BME280;23490;53.656;10.076;2023-02-23T01:28:16;99486.16;;;-145.95;100.00
37648;BME280;23490;53.656;10.076;2023-02-23T01:30:41;99461.38;;;-145.95;100.00
37648;BME280;23490;53.656;10.076;2023-02-23T01:33:07;99463.44;;;-145.95;100.00
37648;BME280;23490;53.656;10.076;2023-02-23T01:35:33;99477.91;;;-145.95;100.00
37648;BME280;23490;53.656;10.076;2023-02-23T01:37:58;99500.63;;;-145.95;100.00
37648;BME280;23490;53.656;10.076;2023-02-23T01:40:25;99498.56;;;-145.95;100.00
37648;BME280;23490;53.656;10.076;2023-02-23T01:42:59;99467.56;;;-145.95;100.00
37648;BME280;23490;53.656;10.076;2023-02-23T01:45:36;99533.66;;;-145.95;100.00
37648;BME280;23490;53.656;10.076;2023-02-23T01:48:17;99508.88;;;-145.95;100.00
37648;BME280;23490;53.656;10.076;2023-02-23T01:50:54;99521.28;;;-145.95;100.00
37648;BME280;23490;53.656;10.076;2023-02-23T01:53:22;99488.22;;;-145.95;100.00
37648;BME280;23490;53.656;10.076;2023-02-23T01:55:56;99508.88;;;-145.95;100.00
37648;BME280;23490;53.656;10.076;2023-02-23T01:58:23;99529.53;;;-145.95;100.00
37648;BME280;23490;53.656;10.076;2023-02-23T02:00:53;99517.13;;;-145.95;100.00
37648;BME280;23490;53.656;10.076;2023-02-23T02:03:36;99502.69;;;-145.95;100.00
37648;BME280;23490;53.656;10.076;2023-02-23T02:06:04;99444.84;;;-145.95;100.00
37648;BME280;23490;53.656;10.076;2023-02-23T02:08:35;99506.81;;;-145.95;100.00
37648;BME280;23490;53.656;10.076;2023-02-23T02:11:13;99463.44;;;-145.95;100.00
37648;BME280;23490;53.656;10.076;2023-02-23T02:14:14;99451.06;;;-145.95;100.00
37648;BME280;23490;53.656;10.076;2023-02-23T02:22:38;99504.75;;;-145.95;100.00
37648;BME280;23490;53.656;10.076;2023-02-23T02:25:40;99500.63;;;-145.95;100.00
37648;BME280;23490;53.656;10.076;2023-02-23T02:39:42;99479.97;;;-145.95;100.00
37648;BME280;23490;53.656;10.076;2023-02-23T02:42:20;99508.88;;;-145.95;100.00
37648;BME280;23490;53.656;10.076;2023-02-23T02:44:54;99484.09;;;-145.95;100.00
37648;BME280;23490;53.656;10.076;2023-02-23T02:47:33;99498.56;;;-145.95;100.00
37648;BME280;23490;53.656;10.076;2023-02-23T02:50:15;99477.91;;;-145.95;100.00
37648;BME280;23490;53.656;10.076;2023-02-23T02:52:47;99467.56;;;-145.95;100.00
37648;BME280;23490;53.656;10.076;2023-02-23T02:55:19;99438.66;;;-145.95;100.00
37648;BME280;23490;53.656;10.076;2023-02-23T02:57:49;99455.19;;;-145.95;100.00
37648;BME280;23490;53.656;10.076;2023-02-23T03:00:22;99451.06;;;-145.95;100.00
37648;BME280;23490;53.656;10.076;2023-02-23T03:03:46;99461.38;;;-145.95;100.00
37648;BME280;23490;53.656;10.076;2023-02-23T03:06:45;99471.69;;;-145.95;100.00
37648;BME280;23490;53.656;10.076;2023-02-23T03:09:40;99479.97;;;-145.95;100.00
37648;BME280;23490;53.656;10.076;2023-02-23T03:12:40;99430.41;;;-145.95;100.00
37648;BME280;23490;53.656;10.076;2023-02-23T03:21:53;99475.84;;;-145.95;100.00
37648;BME280;23490;53.656;10.076;2023-02-23T03:30:42;99444.84;;;-145.95;100.00
37648;BME280;23490;53.656;10.076;2023-02-23T03:33:39;99418.00;;;-145.95;100.00
37648;BME280;23490;53.656;10.076;2023-02-23T03:36:31;99496.47;;;-145.95;100.00
37648;BME280;23490;53.656;10.076;2023-02-23T03:39:29;99426.28;;;-145.95;100.00
37648;BME280;23490;53.656;10.076;2023-02-23T03:42:18;99430.41;;;-145.95;100.00
37648;BME280;23490;53.656;10.076;2023-02-23T03:45:07;99461.38;;;-145.95;100.00
37648;BME280;23490;53.656;10.076;2023-02-23T03:47:54;99475.84;;;-145.95;100.00
37648;BME280;23490;53.656;10.076;2023-02-23T03:50:46;99459.31;;;-145.95;100.00
37648;BME280;23490;53.656;10.076;2023-02-23T03:53:40;99438.66;;;-145.95;100.00
37648;BME280;23490;53.656;10.076;2023-02-23T03:56:27;99440.72;;;-145.95;100.00
37648;BME280;23490;53.656;10.076;2023-02-23T03:59:16;99428.34;;;-145.95;100.00
37648;BME280;23490;53.656;10.076;2023-02-23T04:02:01;99411.81;;;-145.95;100.00
37648;BME280;23490;53.656;10.076;2023-02-23T04:04:47;99467.56;;;-145.95;100.00
37648;BME280;23490;53.656;10.076;2023-02-23T04:07:32;99467.56;;;-145.95;100.00
37648;BME280;23490;53.656;10.076;2023-02-23T04:10:17;99446.91;;;-145.95;100.00
37648;BME280;23490;53.656;10.076;2023-02-23T04:13:07;99465.50;;;-145.95;100.00
37648;BME280;23490;53.656;10.076;2023-02-23T04:15:49;99459.31;;;-145.95;100.00
37648;BME280;23490;53.656;10.076;2023-02-23T04:18:22;99434.53;;;-145.95;100.00
37648;BME280;23490;53.656;10.076;2023-02-23T04:20:48;99455.19;;;-145.95;100.00
37648;BME280;23490;53.656;10.076;2023-02-23T04:23:14;99465.50;;;-145.95;100.00
37648;BME280;23490;53.656;10.076;2023-02-23T04:25:39;99479.97;;;-145.95;100.00
37648;BME280;23490;53.656;10.076;2023-02-23T04:28:04;99413.88;;;-145.95;100.00
37648;BME280;23490;53.656;10.076;2023-02-23T04:30:30;99422.13;;;-145.95;100.00
37648;BME280;23490;53.656;10.076;2023-02-23T04:32:55;99457.25;;;-145.95;100.00
37648;BME280;23490;53.656;10.076;2023-02-23T04:35:21;99451.06;;;-145.95;100.00
37648;BME280;23490;53.656;10.076;2023-02-23T04:37:46;99438.66;;;-145.95;100.00
37648;BME280;23490;53.656;10.076;2023-02-23T04:40:12;99422.13;;;-145.95;100.00
37648;BME280;23490;53.656;10.076;2023-02-23T04:42:38;99428.34;;;-145.95;100.00
37648;BME280;23490;53.656;10.076;2023-02-23T04:45:04;99438.66;;;-145.95;100.00
37648;BME280;23490;53.656;10.076;2023-02-23T04:47:30;99434.53;;;-145.95;100.00
37648;BME280;23490;53.656;10.076;2023-02-23T04:49:55;99434.53;;;-145.95;100.00
37648;BME280;23490;53.656;10.076;2023-02-23T04:52:20;99479.97;;;-145.95;100.00
37648;BME280;23490;53.656;10.076;2023-02-23T04:54:46;99434.53;;;-145.95;100.00
37648;BME280;23490;53.656;10.076;2023-02-23T04:57:12;99444.84;;;-145.95;100.00
37648;BME280;23490;53.656;10.076;2023-02-23T04:59:37;99457.25;;;-145.95;100.00
37648;BME280;23490;53.656;10.076;2023-02-23T05:02:02;99451.06;;;-145.95;100.00
37648;BME280;23490;53.656;10.076;2023-02-23T05:04:28;99399.41;;;-145.95;100.00
37648;BME280;23490;53.656;10.076;2023-02-23T05:06:53;99440.72;;;-145.95;100.00
37648;BME280;23490;53.656;10.076;2023-02-23T05:09:19;99430.41;;;-145.95;100.00
37648;BME280;23490;53.656;10.076;2023-02-23T05:11:44;99430.41;;;-145.95;100.00
37648;BME280;23490;53.656;10.076;2023-02-23T05:14:10;99432.47;;;-145.95;100.00
37648;BME280;23490;53.656;10.076;2023-02-23T05:16:36;99428.34;;;-145.95;100.00
37648;BME280;23490;53.656;10.076;2023-02-23T05:19:01;99463.44;;;-145.95;100.00
37648;BME280;23490;53.656;10.076;2023-02-23T05:21:27;99442.78;;;-145.95;100.00
37648;BME280;23490;53.656;10.076;2023-02-23T05:23:52;99430.41;;;-145.95;100.00
37648;BME280;23490;53.656;10.076;2023-02-23T05:26:17;99448.97;;;-145.95;100.00
37648;BME280;23490;53.656;10.076;2023-02-23T05:28:43;99451.06;;;-145.95;100.00
37648;BME280;23490;53.656;10.076;2023-02-23T05:31:09;99420.06;;;-145.95;100.00
37648;BME280;23490;53.656;10.076;2023-02-23T05:33:35;99438.66;;;-145.95;100.00
37648;BME280;23490;53.656;10.076;2023-02-23T05:36:11;99418.00;;;-145.95;100.00
37648;BME280;23490;53.656;10.076;2023-02-23T05:38:37;99434.53;;;-145.95;100.00
37648;BME280;23490;53.656;10.076;2023-02-23T05:41:08;99455.19;;;-145.95;100.00
37648;BME280;23490;53.656;10.076;2023-02-23T05:43:34;99434.53;;;-145.95;100.00
37648;BME280;23490;53.656;10.076;2023-02-23T05:45:59;99459.31;;;-145.95;100.00
37648;BME280;23490;53.656;10.076;2023-02-23T05:48:26;99463.44;;;-145.95;100.00
37648;BME280;23490;53.656;10.076;2023-02-23T05:50:51;99430.41;;;-145.95;100.00
37648;BME280;23490;53.656;10.076;2023-02-23T05:53:17;99422.13;;;-145.95;100.00
37648;BME280;23490;53.656;10.076;2023-02-23T05:55:42;99422.13;;;-145.95;100.00
37648;BME280;23490;53.656;10.076;2023-02-23T05:58:07;99405.63;;;-145.95;100.00
37648;BME280;23490;53.656;10.076;2023-02-23T06:00:33;99438.66;;;-145.95;100.00
37648;BME280;23490;53.656;10.076;2023-02-23T06:02:58;99376.69;;;-145.95;100.00
37648;BME280;23490;53.656;10.076;2023-02-23T06:05:23;99451.06;;;-145.95;100.00
37648;BME280;23490;53.656;10.076;2023-02-23T06:07:49;99451.06;;;-145.95;100.00
37648;BME280;23490;53.656;10.076;2023-02-23T06:10:14;99413.88;;;-145.95;100.00
37648;BME280;23490;53.656;10.076;2023-02-23T06:12:39;99372.56;;;-145.95;100.00
37648;BME280;23490;53.656;10.076;2023-02-23T06:15:05;99356.06;;;-145.95;100.00
37648;BME280;23490;53.656;10.076;2023-02-23T06:17:30;99407.69;;;-145.95;100.00
37648;BME280;23490;53.656;10.076;2023-02-23T06:19:56;99438.66;;;-145.95;100.00
37648;BME280;23490;53.656;10.076;2023-02-23T06:22:23;99467.56;;;-145.95;100.00
37648;BME280;23490;53.656;10.076;2023-02-23T06:24:48;99448.97;;;-145.95;100.00
37648;BME280;23490;53.656;10.076;2023-02-23T06:27:13;99391.16;;;-145.95;100.00
37648;BME280;23490;53.656;10.076;2023-02-23T06:29:39;99413.88;;;-145.95;100.00
37648;BME280;23490;53.656;10.076;2023-02-23T06:32:04;99457.25;;;-145.95;100.00
37648;BME280;23490;53.656;10.076;2023-02-23T06:34:30;99407.69;;;-145.95;100.00
37648;BME280;23490;53.656;10.076;2023-02-23T06:36:55;99422.13;;;-145.95;100.00
37648;BME280;23490;53.656;10.076;2023-02-23T06:39:21;99442.78;;;-145.95;100.00
37648;BME280;23490;53.656;10.076;2023-02-23T06:41:46;99418.00;;;-145.95;100.00
37648;BME280;23490;53.656;10.076;2023-02-23T06:44:11;99432.47;;;-145.95;100.00
37648;BME280;23490;53.656;10.076;2023-02-23T06:46:37;99380.84;;;-145.95;100.00
37648;BME280;23490;53.656;10.076;2023-02-23T06:49:02;99409.75;;;-145.95;100.00
37648;BME280;23490;53.656;10.076;2023-02-23T06:51:28;99384.97;;;-145.95;100.00
37648;BME280;23490;53.656;10.076;2023-02-23T06:53:53;99387.03;;;-145.95;100.00
37648;BME280;23490;53.656;10.076;2023-02-23T06:56:19;99442.78;;;-145.95;100.00
37648;BME280;23490;53.656;10.076;2023-02-23T06:58:44;99415.94;;;-145.95;100.00
37648;BME280;23490;53.656;10.076;2023-02-23T07:01:10;99397.34;;;-145.95;100.00
37648;BME280;23490;53.656;10.076;2023-02-23T07:03:37;99393.22;;;-145.95;100.00
37648;BME280;23490;53.656;10.076;2023-02-23T07:06:02;99389.09;;;-145.95;100.00
37648;BME280;23490;53.656;10.076;2023-02-23T07:08:30;99368.44;;;-145.95;100.00
37648;BME280;23490;53.656;10.076;2023-02-23T07:10:56;99407.69;;;-145.95;100.00
37648;BME280;23490;53.656;10.076;2023-02-23T07:13:22;99430.41;;;-145.95;100.00
37648;BME280;23490;53.656;10.076;2023-02-23T07:15:48;99426.28;;;-145.95;100.00
37648;BME280;23490;53.656;10.076;2023-02-23T07:18:13;99426.28;;;-145.95;100.00
37648;BME280;23490;53.656;10.076;2023-02-23T07:20:38;99393.22;;;-145.95;100.00
37648;BME280;23490;53.656;10.076;2023-02-23T07:23:04;99407.69;;;-145.95;100.00
37648;BME280;23490;53.656;10.076;2023-02-23T07:25:29;99405.63;;;-145.95;100.00
37648;BME280;23490;53.656;10.076;2023-02-23T07:27:55;99397.34;;;-145.95;100.00
37648;BME280;23490;53.656;10.076;2023-02-23T07:30:21;99409.75;;;-145.95;100.00
37648;BME280;23490;53.656;10.076;2023-02-23T07:32:52;99409.75;;;-145.95;100.00
37648;BME280;23490;53.656;10.076;2023-02-23T07:35:18;99351.91;;;-145.95;100.00
37648;BME280;23490;53.656;10.076;2023-02-23T07:37:44;99384.97;;;-145.95;100.00
37648;BME280;23490;53.656;10.076;2023-02-23T07:40:10;99430.41;;;-145.95;100.00
37648;BME280;23490;53.656;10.076;2023-02-23T07:42:35;99422.13;;;-145.95;100.00
37648;BME280;23490;53.656;10.076;2023-02-23T07:45:01;99391.16;;;-145.95;100.00
37648;BME280;23490;53.656;10.076;2023-02-23T07:47:26;99401.50;;;-145.95;100.00
37648;BME280;23490;53.656;10.076;2023-02-23T07:49:59;99391.16;;;-145.95;100.00
37648;BME280;23490;53.656;10.076;2023-02-23T07:52:26;99422.13;;;-145.95;100.00
37648;BME280;23490;53.656;10.076;2023-02-23T07:54:52;99360.19;;;-145.95;100.00
37648;BME280;23490;53.656;10.076;2023-02-23T07:57:18;99360.19;;;-145.95;100.00
37648;BME280;23490;53.656;10.076;2023-02-23T07:59:45;99378.78;;;-145.95;100.00
37648;BME280;23490;53.656;10.076;2023-02-23T08:02:12;99347.78;;;-145.95;100.00
37648;BME280;23490;53.656;10.076;2023-02-23T08:04:37;99393.22;;;-145.95;100.00
37648;BME280;23490;53.656;10.076;2023-02-23T08:07:05;99401.50;;;-145.95;100.00
37648;BME280;23490;53.656;10.076;2023-02-23T08:09:30;99401.50;;;-145.95;100.00
37648;BME280;23490;53.656;10.076;2023-02-23T08:11:56;99362.25;;;-145.95;100.00
37648;BME280;23490;53.656;10.076;2023-02-23T08:14:22;99368.44;;;-145.95;100.00
37648;BME280;23490;53.656;10.076;2023-02-23T08:16:47;99405.63;;;-145.95;100.00
37648;BME280;23490;53.656;10.076;2023-02-23T08:19:13;99413.88;;;-145.95;100.00
37648;BME280;23490;53.656;10.076;2023-02-23T08:21:38;99401.50;;;-145.95;100.00
37648;BME280;23490;53.656;10.076;2023-02-23T08:24:04;99376.69;;;-145.95;100.00
37648;BME280;23490;53.656;10.076;2023-02-23T08:26:30;99401.50;;;-145.95;100.00
37648;BME280;23490;53.656;10.076;2023-02-23T08:28:55;99405.63;;;-145.95;100.00
37648;BME280;23490;53.656;10.076;2023-02-23T08:31:21;99393.22;;;-145.95;100.00
37648;BME280;23490;53.656;10.076;2023-02-23T08:33:48;99405.63;;;-145.95;100.00
37648;BME280;23490;53.656;10.076;2023-02-23T08:36:13;99426.28;;;-145.95;100.00
37648;BME280;23490;53.656;10.076;2023-02-23T08:38:38;99413.88;;;-145.95;100.00
37648;BME280;23490;53.656;10.076;2023-02-23T08:41:04;99422.13;;;-145.95;100.00
37648;BME280;23490;53.656;10.076;2023-02-23T08:43:30;99403.56;;;-145.95;100.00
37648;BME280;23490;53.656;10.076;2023-02-23T08:45:56;99397.34;;;-145.95;100.00
37648;BME280;23490;53.656;10.076;2023-02-23T08:48:22;99393.22;;;-145.95;100.00
37648;BME280;23490;53.656;10.076;2023-02-23T08:50:49;99401.50;;;-145.95;100.00
37648;BME280;23490;53.656;10.076;2023-02-23T08:53:17;99356.06;;;-145.95;100.00
37648;BME280;23490;53.656;10.076;2023-02-23T08:55:43;99397.34;;;-145.95;100.00
37648;BME280;23490;53.656;10.076;2023-02-23T08:58:09;99351.91;;;-145.95;100.00
37648;BME280;23490;53.656;10.076;2023-02-23T09:00:36;99372.56;;;-145.95;100.00
37648;BME280;23490;53.656;10.076;2023-02-23T09:03:05;99378.78;;;-145.95;100.00
37648;BME280;23490;53.656;10.076;2023-02-23T09:05:32;99413.88;;;-145.95;100.00
37648;BME280;23490;53.656;10.076;2023-02-23T09:08:00;99380.84;;;-145.95;100.00
37648;BME280;23490;53.656;10.076;2023-02-23T09:10:25;99413.88;;;-145.95;100.00
37648;BME280;23490;53.656;10.076;2023-02-23T09:12:53;99343.66;;;-145.95;100.00
37648;BME280;23490;53.656;10.076;2023-02-23T09:15:19;99331.28;;;-145.95;100.00
37648;BME280;23490;53.656;10.076;2023-02-23T09:17:45;99409.75;;;-145.95;100.00
37648;BME280;23490;53.656;10.076;2023-02-23T09:20:12;99343.66;;;-145.95;100.00
37648;BME280;23490;53.656;10.076;2023-02-23T09:22:40;99382.91;;;-145.95;100.00
37648;BME280;23490;53.656;10.076;2023-02-23T09:25:09;99409.75;;;-145.95;100.00
37648;BME280;23490;53.656;10.076;2023-02-23T09:27:37;99384.97;;;-145.95;100.00
37648;BME280;23490;53.656;10.076;2023-02-23T09:30:03;99380.84;;;-145.95;100.00
37648;BME280;23490;53.656;10.076;2023-02-23T09:32:28;99372.56;;;-145.95;100.00
37648;BME280;23490;53.656;10.076;2023-02-23T09:34:54;99364.31;;;-145.95;100.00
37648;BME280;23490;53.656;10.076;2023-02-23T09:37:19;99401.50;;;-145.95;100.00
37648;BME280;23490;53.656;10.076;2023-02-23T09:39:44;99376.69;;;-145.95;100.00
37648;BME280;23490;53.656;10.076;2023-02-23T09:42:24;99380.84;;;-145.95;100.00
37648;BME280;23490;53.656;10.076;2023-02-23T09:45:08;99360.19;;;-145.95;100.00
37648;BME280;23490;53.656;10.076;2023-02-23T09:50:23;99409.75;;;-145.95;100.00
37648;BME280;23490;53.656;10.076;2023-02-23T09:52:56;99387.03;;;-145.95;100.00
37648;BME280;23490;53.656;10.076;2023-02-23T09:55:24;99418.00;;;-145.95;100.00
37648;BME280;23490;53.656;10.076;2023-02-23T09:57:50;99405.63;;;-145.95;100.00
37648;BME280;23490;53.656;10.076;2023-02-23T10:00:20;99422.13;;;-145.95;100.00
37648;BME280;23490;53.656;10.076;2023-02-23T10:05:28;99434.53;;;-145.95;100.00
37648;BME280;23490;53.656;10.076;2023-02-23T10:08:02;99418.00;;;-145.95;100.00
37648;BME280;23490;53.656;10.076;2023-02-23T10:10:47;99399.41;;;-145.95;100.00
37648;BME280;23490;53.656;10.076;2023-02-23T10:16:17;99430.41;;;-145.95;100.00
37648;BME280;23490;53.656;10.076;2023-02-23T10:18:57;99384.97;;;-145.95;100.00
37648;BME280;23490;53.656;10.076;2023-02-23T10:21:38;99382.91;;;-145.95;100.00
37648;BME280;23490;53.656;10.076;2023-02-23T10:24:26;99391.16;;;-145.95;100.00
37648;BME280;23490;53.656;10.076;2023-02-23T10:26:58;99415.94;;;-145.95;100.00
37648;BME280;23490;53.656;10.076;2023-02-23T10:29:31;99389.09;;;-145.95;100.00
37648;BME280;23490;53.656;10.076;2023-02-23T10:32:02;99376.69;;;-145.95;100.00
37648;BME280;23490;53.656;10.076;2023-02-23T10:34:29;99422.13;;;-145.95;100.00
37648;BME280;23490;53.656;10.076;2023-02-23T10:37:00;99405.63;;;-145.95;100.00
37648;BME280;23490;53.656;10.076;2023-02-23T10:39:27;99387.03;;;-145.95;100.00
37648;BME280;23490;53.656;10.076;2023-02-23T10:41:56;99413.88;;;-145.95;100.00
37648;BME280;23490;53.656;10.076;2023-02-23T10:44:23;99401.50;;;-145.95;100.00
37648;BME280;23490;53.656;10.076;2023-02-23T10:47:08;99422.13;;;-145.95;100.00
37648;BME280;23490;53.656;10.076;2023-02-23T10:49:55;99418.00;;;-145.95;100.00
37648;BME280;23490;53.656;10.076;2023-02-23T10:52:26;99432.47;;;-145.95;100.00
37648;BME280;23490;53.656;10.076;2023-02-23T10:54:54;99422.13;;;-145.95;100.00
37648;BME280;23490;53.656;10.076;2023-02-23T10:57:28;99432.47;;;-145.95;100.00
37648;BME280;23490;53.656;10.076;2023-02-23T11:02:52;99360.19;;;-145.95;100.00
37648;BME280;23490;53.656;10.076;2023-02-23T11:05:34;99372.56;;;-145.95;100.00
37648;BME280;23490;53.656;10.076;2023-02-23T11:08:16;99339.53;;;-145.95;100.00
37648;BME280;23490;53.656;10.076;2023-02-23T11:11:03;99360.19;;;-145.95;100.00
37648;BME280;23490;53.656;10.076;2023-02-23T11:13:37;99331.28;;;-145.95;100.00
37648;BME280;23490;53.656;10.076;2023-02-23T11:16:07;99333.34;;;-145.95;100.00
37648;BME280;23490;53.656;10.076;2023-02-23T11:18:35;99302.34;;;-145.95;100.00
37648;BME280;23490;53.656;10.076;2023-02-23T11:21:01;99323.00;;;-145.95;100.00
37648;BME280;23490;53.656;10.076;2023-02-23T11:23:30;99310.63;;;-145.95;100.00
37648;BME280;23490;53.656;10.076;2023-02-23T11:25:58;99347.78;;;-145.95;100.00
37648;BME280;23490;53.656;10.076;2023-02-23T11:28:28;99327.13;;;-145.95;100.00
37648;BME280;23490;53.656;10.076;2023-02-23T11:31:15;99302.34;;;-145.95;100.00
37648;BME280;23490;53.656;10.076;2023-02-23T11:33:42;99318.88;;;-145.95;100.00
37648;BME280;23490;53.656;10.076;2023-02-23T11:38:45;99302.34;;;-145.95;100.00
37648;BME280;23490;53.656;10.076;2023-02-23T11:41:20;99306.50;;;-145.95;100.00
37648;BME280;23490;53.656;10.076;2023-02-23T11:43:48;99323.00;;;-145.95;100.00
37648;BME280;23490;53.656;10.076;2023-02-23T11:46:14;99312.69;;;-145.95;100.00
37648;BME280;23490;53.656;10.076;2023-02-23T11:48:51;99275.50;;;-145.95;100.00
37648;BME280;23490;53.656;10.076;2023-02-23T11:51:27;99283.78;;;-145.95;99.31
37648;BME280;23490;53.656;10.076;2023-02-23T11:53:54;99269.31;;;-145.95;100.00
37648;BME280;23490;53.656;10.076;2023-02-23T11:56:21;99327.13;;;-145.95;99.74
37648;BME280;23490;53.656;10.076;2023-02-23T11:58:59;99277.56;;;-145.95;100.00
37648;BME280;23490;53.656;10.076;2023-02-23T12:01:41;99347.78;;;-145.95;99.32
37648;BME280;23490;53.656;10.076;2023-02-23T12:04:26;99310.63;;;-145.95;98.43
37648;BME280;23490;53.656;10.076;2023-02-23T12:10:26;99318.88;;;-145.95;98.75
37648;BME280;23490;53.656;10.076;2023-02-23T12:13:11;99314.75;;;-145.95;98.88
37648;BME280;23490;53.656;10.076;2023-02-23T12:16:02;99323.00;;;-145.95;98.11
37648;BME280;23490;53.656;10.076;2023-02-23T12:23:43;99289.97;;;-145.95;97.77
37648;BME280;23490;53.656;10.076;2023-02-23T12:26:15;99296.16;;;-145.95;96.96
37648;BME280;23490;53.656;10.076;2023-02-23T12:29:35;99318.88;;;-145.95;96.89
37648;BME280;23490;53.656;10.076;2023-02-23T12:31:59;99351.91;;;-145.95;96.39
37648;BME280;23490;53.656;10.076;2023-02-23T12:34:45;99289.97;;;-145.95;97.24
37648;BME280;23490;53.656;10.076;2023-02-23T12:40:06;99339.53;;;-145.95;97.12
37648;BME280;23490;53.656;10.076;2023-02-23T12:42:41;99320.94;;;-145.95;96.58
37648;BME280;23490;53.656;10.076;2023-02-23T12:48:24;99325.06;;;-145.95;97.62
37648;BME280;23490;53.656;10.076;2023-02-23T12:50:55;99318.88;;;-145.95;96.89
37648;BME280;23490;53.656;10.076;2023-02-23T12:56:52;99289.97;;;-145.95;96.60
37648;BME280;23490;53.656;10.076;2023-02-23T12:59:18;99294.09;;;-145.95;96.32
37648;BME280;23490;53.656;10.076;2023-02-23T13:01:58;99308.56;;;-145.95;97.37
37648;BME280;23490;53.656;10.076;2023-02-23T13:07:28;99343.66;;;-145.95;96.09
37648;BME280;23490;53.656;10.076;2023-02-23T13:10:11;99339.53;;;-145.95;96.87
37648;BME280;23490;53.656;10.076;2023-02-23T13:12:47;99300.28;;;-145.95;98.60
37648;BME280;23490;53.656;10.076;2023-02-23T13:15:43;99351.91;;;-145.95;100.00
37648;BME280;23490;53.656;10.076;2023-02-23T13:18:22;99335.41;;;-145.95;98.50
37648;BME280;23490;53.656;10.076;2023-02-23T13:21:15;99302.34;;;-145.95;97.64
37648;BME280;23490;53.656;10.076;2023-02-23T13:24:05;99347.78;;;-145.95;99.92
37648;BME280;23490;53.656;10.076;2023-02-23T13:29:34;99289.97;;;-145.95;98.02
37648;BME280;23490;53.656;10.076;2023-02-23T13:32:02;99269.31;;;-145.95;97.97
37648;BME280;23490;53.656;10.076;2023-02-23T13:34:32;99325.06;;;-145.95;97.34
37648;BME280;23490;53.656;10.076;2023-02-23T13:37:03;99298.22;;;-145.95;96.92
37648;BME280;23490;53.656;10.076;2023-02-23T13:50:56;99335.41;;;-145.95;95.14
37648;BME280;23490;53.656;10.076;2023-02-23T13:56:07;99318.88;;;-145.95;98.95
37648;BME280;23490;53.656;10.076;2023-02-23T13:58:34;99281.72;;;-145.95;96.97
37648;BME280;23490;53.656;10.076;2023-02-23T14:01:06;99302.34;;;-145.95;95.69
37648;BME280;23490;53.656;10.076;2023-02-23T14:03:39;99331.28;;;-145.95;95.42